sensor_id;sensor_type;location;lat;lon;timestamp;P1;durP1;ratioP1;P2;durP2;ratioP2
18857;SDS011;9558;50.178;8.370;2023-01-01T00:01:05;40.75;;;19.50;;
18857;SDS011;9558;50.178;8.370;2023-01-01T00:03:34;65.85;;;34.53;;
18857;SDS011;9558;50.178;8.370;2023-01-01T00:06:03;72.50;;;35.42;;
18857;SDS011;9558;50.178;8.370;2023-01-01T00:08:31;64.13;;;32.33;;
18857;SDS011;9558;50.178;8.370;2023-01-01T00:10:59;52.30;;;26.63;;
18857;SDS011;9558;50.178;8.370;2023-01-01T00:13:26;36.78;;;18.33;;
18857;SDS011;9558;50.178;8.370;2023-01-01T00:15:52;35.25;;;17.00;;
18857;SDS011;9558;50.178;8.370;2023-01-01T00:18:19;27.30;;;15.45;;
18857;SDS011;9558;50.178;8.370;2023-01-01T00:20:47;19.25;;;10.50;;
18857;SDS011;9558;50.178;8.370;2023-01-01T00:23:13;40.67;;;15.13;;
18857;SDS011;9558;50.178;8.370;2023-01-01T00:25:40;25.92;;;12.35;;
18857;SDS011;9558;50.178;8.370;2023-01-01T00:28:06;19.55;;;10.63;;
18857;SDS011;9558;50.178;8.370;2023-01-01T00:30:34;16.20;;;7.63;;
18857;SDS011;9558;50.178;8.370;2023-01-01T00:33:00;15.70;;;8.45;;
18857;SDS011;9558;50.178;8.370;2023-01-01T00:35:27;14.10;;;8.10;;
18857;SDS011;9558;50.178;8.370;2023-01-01T00:37:55;15.05;;;8.35;;
18857;SDS011;9558;50.178;8.370;2023-01-01T00:40:21;21.58;;;11.23;;
18857;SDS011;9558;50.178;8.370;2023-01-01T00:42:48;43.45;;;18.40;;
18857;SDS011;9558;50.178;8.370;2023-01-01T00:45:14;51.05;;;18.70;;
18857;SDS011;9558;50.178;8.370;2023-01-01T00:47:41;44.63;;;23.50;;
18857;SDS011;9558;50.178;8.370;2023-01-01T00:50:08;29.00;;;14.00;;
18857;SDS011;9558;50.178;8.370;2023-01-01T00:52:34;21.75;;;10.38;;
18857;SDS011;9558;50.178;8.370;2023-01-01T00:55:02;38.72;;;16.88;;
18857;SDS011;9558;50.178;8.370;2023-01-01T00:57:29;33.70;;;14.98;;
18857;SDS011;9558;50.178;8.370;2023-01-01T00:59:56;33.08;;;16.67;;
18857;SDS011;9558;50.178;8.370;2023-01-01T01:02:22;50.67;;;24.90;;
18857;SDS011;9558;50.178;8.370;2023-01-01T01:04:49;30.92;;;14.40;;
18857;SDS011;9558;50.178;8.370;2023-01-01T01:07:15;46.08;;;22.75;;
18857;SDS011;9558;50.178;8.370;2023-01-01T01:09:42;20.73;;;10.05;;
18857;SDS011;9558;50.178;8.370;2023-01-01T01:12:10;20.58;;;9.68;;
18857;SDS011;9558;50.178;8.370;2023-01-01T01:14:36;24.48;;;11.02;;
18857;SDS011;9558;50.178;8.370;2023-01-01T01:17:03;38.75;;;18.52;;
18857;SDS011;9558;50.178;8.370;2023-01-01T01:19:29;45.47;;;24.55;;
18857;SDS011;9558;50.178;8.370;2023-01-01T01:21:56;32.58;;;14.32;;
18857;SDS011;9558;50.178;8.370;2023-01-01T01:24:22;25.48;;;13.77;;
18857;SDS011;9558;50.178;8.370;2023-01-01T01:26:49;24.85;;;12.43;;
18857;SDS011;9558;50.178;8.370;2023-01-01T01:29:17;42.35;;;21.38;;
18857;SDS011;9558;50.178;8.370;2023-01-01T01:31:43;30.35;;;15.13;;
18857;SDS011;9558;50.178;8.370;2023-01-01T01:34:10;26.17;;;14.20;;
18857;SDS011;9558;50.178;8.370;2023-01-01T01:36:36;18.92;;;9.57;;
18857;SDS011;9558;50.178;8.370;2023-01-01T01:39:03;20.35;;;10.93;;
18857;SDS011;9558;50.178;8.370;2023-01-01T01:41:29;18.52;;;9.02;;
18857;SDS011;9558;50.178;8.370;2023-01-01T01:43:57;13.05;;;7.60;;
18857;SDS011;9558;50.178;8.370;2023-01-01T01:46:27;12.90;;;6.75;;
18857;SDS011;9558;50.178;8.370;2023-01-01T01:48:58;14.38;;;7.65;;
18857;SDS011;9558;50.178;8.370;2023-01-01T01:51:29;8.93;;;6.35;;
18857;SDS011;9558;50.178;8.370;2023-01-01T01:53:58;10.75;;;5.70;;
18857;SDS011;9558;50.178;8.370;2023-01-01T01:56:28;18.75;;;8.05;;
18857;SDS011;9558;50.178;8.370;2023-01-01T02:03:56;7.93;;;4.22;;
18857;SDS011;9558;50.178;8.370;2023-01-01T02:06:24;11.20;;;6.05;;
18857;SDS011;9558;50.178;8.370;2023-01-01T02:08:53;11.45;;;6.35;;
18857;SDS011;9558;50.178;8.370;2023-01-01T02:11:21;9.23;;;5.60;;
18857;SDS011;9558;50.178;8.370;2023-01-01T02:13:48;18.30;;;9.38;;
18857;SDS011;9558;50.178;8.370;2023-01-01T02:16:17;19.50;;;10.38;;
18857;SDS011;9558;50.178;8.370;2023-01-01T02:18:50;16.77;;;8.65;;
18857;SDS011;9558;50.178;8.370;2023-01-01T02:21:24;20.08;;;8.18;;
18857;SDS011;9558;50.178;8.370;2023-01-01T02:26:51;13.35;;;7.63;;
18857;SDS011;9558;50.178;8.370;2023-01-01T02:29:32;17.13;;;8.27;;
18857;SDS011;9558;50.178;8.370;2023-01-01T02:32:04;18.85;;;7.80;;
18857;SDS011;9558;50.178;8.370;2023-01-01T02:34:34;12.13;;;7.13;;
18857;SDS011;9558;50.178;8.370;2023-01-01T02:37:06;9.75;;;5.85;;
18857;SDS011;9558;50.178;8.370;2023-01-01T02:39:36;11.23;;;5.78;;
18857;SDS011;9558;50.178;8.370;2023-01-01T02:42:09;13.60;;;6.85;;
18857;SDS011;9558;50.178;8.370;2023-01-01T02:47:08;16.00;;;8.15;;
18857;SDS011;9558;50.178;8.370;2023-01-01T02:49:38;20.20;;;5.68;;
18857;SDS011;9558;50.178;8.370;2023-01-01T02:52:14;11.45;;;7.07;;
18857;SDS011;9558;50.178;8.370;2023-01-01T02:54:51;14.40;;;6.50;;
18857;SDS011;9558;50.178;8.370;2023-01-01T02:57:26;14.75;;;7.15;;
18857;SDS011;9558;50.178;8.370;2023-01-01T03:00:03;12.63;;;5.95;;
18857;SDS011;9558;50.178;8.370;2023-01-01T03:02:54;10.68;;;6.32;;
18857;SDS011;9558;50.178;8.370;2023-01-01T03:05:36;11.35;;;5.68;;
18857;SDS011;9558;50.178;8.370;2023-01-01T03:08:22;10.60;;;6.03;;
18857;SDS011;9558;50.178;8.370;2023-01-01T03:10:56;16.55;;;7.15;;
18857;SDS011;9558;50.178;8.370;2023-01-01T03:13:29;11.07;;;5.72;;
18857;SDS011;9558;50.178;8.370;2023-01-01T03:16:07;12.13;;;6.43;;
18857;SDS011;9558;50.178;8.370;2023-01-01T03:18:41;12.77;;;6.47;;
18857;SDS011;9558;50.178;8.370;2023-01-01T03:21:13;10.05;;;4.55;;
18857;SDS011;9558;50.178;8.370;2023-01-01T03:23:44;10.13;;;6.13;;
18857;SDS011;9558;50.178;8.370;2023-01-01T03:26:14;13.95;;;6.68;;
18857;SDS011;9558;50.178;8.370;2023-01-01T03:28:45;8.35;;;4.63;;
18857;SDS011;9558;50.178;8.370;2023-01-01T03:31:17;10.00;;;5.40;;
18857;SDS011;9558;50.178;8.370;2023-01-01T03:33:47;9.27;;;4.43;;
18857;SDS011;9558;50.178;8.370;2023-01-01T03:36:18;9.20;;;4.03;;
18857;SDS011;9558;50.178;8.370;2023-01-01T03:38:49;11.40;;;5.30;;
18857;SDS011;9558;50.178;8.370;2023-01-01T03:41:21;11.20;;;5.55;;
18857;SDS011;9558;50.178;8.370;2023-01-01T03:43:54;8.55;;;4.32;;
18857;SDS011;9558;50.178;8.370;2023-01-01T03:46:28;6.30;;;4.00;;
18857;SDS011;9558;50.178;8.370;2023-01-01T03:48:58;12.73;;;5.38;;
18857;SDS011;9558;50.178;8.370;2023-01-01T03:51:26;8.13;;;5.07;;
18857;SDS011;9558;50.178;8.370;2023-01-01T03:54:01;10.25;;;5.88;;
18857;SDS011;9558;50.178;8.370;2023-01-01T03:56:34;8.63;;;4.38;;
18857;SDS011;9558;50.178;8.370;2023-01-01T03:59:08;7.32;;;4.85;;
18857;SDS011;9558;50.178;8.370;2023-01-01T04:01:43;10.63;;;3.75;;
18857;SDS011;9558;50.178;8.370;2023-01-01T04:04:13;6.95;;;3.80;;
18857;SDS011;9558;50.178;8.370;2023-01-01T04:06:41;11.98;;;5.18;;
18857;SDS011;9558;50.178;8.370;2023-01-01T04:09:08;9.27;;;4.32;;
18857;SDS011;9558;50.178;8.370;2023-01-01T04:11:39;7.40;;;3.13;;
18857;SDS011;9558;50.178;8.370;2023-01-01T04:14:28;6.68;;;4.07;;
18857;SDS011;9558;50.178;8.370;2023-01-01T04:16:59;11.80;;;3.85;;
18857;SDS011;9558;50.178;8.370;2023-01-01T04:19:26;7.22;;;4.40;;
18857;SDS011;9558;50.178;8.370;2023-01-01T04:21:53;7.00;;;3.40;;
18857;SDS011;9558;50.178;8.370;2023-01-01T04:24:20;5.95;;;3.85;;
18857;SDS011;9558;50.178;8.370;2023-01-01T04:26:47;9.75;;;4.72;;
18857;SDS011;9558;50.178;8.370;2023-01-01T04:29:14;6.80;;;3.92;;
18857;SDS011;9558;50.178;8.370;2023-01-01T04:31:41;6.07;;;3.70;;
18857;SDS011;9558;50.178;8.370;2023-01-01T04:34:09;7.40;;;3.53;;
18857;SDS011;9558;50.178;8.370;2023-01-01T04:36:36;6.00;;;3.85;;
18857;SDS011;9558;50.178;8.370;2023-01-01T04:39:03;5.80;;;3.10;;
18857;SDS011;9558;50.178;8.370;2023-01-01T04:41:30;4.80;;;2.80;;
18857;SDS011;9558;50.178;8.370;2023-01-01T04:43:57;5.00;;;2.90;;
18857;SDS011;9558;50.178;8.370;2023-01-01T04:46:24;5.63;;;2.70;;
18857;SDS011;9558;50.178;8.370;2023-01-01T04:48:50;6.25;;;3.05;;
18857;SDS011;9558;50.178;8.370;2023-01-01T04:51:19;6.50;;;3.33;;
18857;SDS011;9558;50.178;8.370;2023-01-01T04:53:46;6.45;;;2.70;;
18857;SDS011;9558;50.178;8.370;2023-01-01T04:56:14;5.78;;;2.67;;
18857;SDS011;9558;50.178;8.370;2023-01-01T04:58:42;5.68;;;2.25;;
18857;SDS011;9558;50.178;8.370;2023-01-01T05:01:13;4.40;;;2.78;;
18857;SDS011;9558;50.178;8.370;2023-01-01T05:03:41;5.75;;;3.00;;
18857;SDS011;9558;50.178;8.370;2023-01-01T05:06:08;6.72;;;2.63;;
18857;SDS011;9558;50.178;8.370;2023-01-01T05:08:38;6.20;;;2.15;;
18857;SDS011;9558;50.178;8.370;2023-01-01T05:11:06;4.13;;;2.70;;
18857;SDS011;9558;50.178;8.370;2023-01-01T05:13:35;3.53;;;2.08;;
18857;SDS011;9558;50.178;8.370;2023-01-01T05:16:03;3.75;;;2.35;;
18857;SDS011;9558;50.178;8.370;2023-01-01T05:18:31;5.30;;;2.78;;
18857;SDS011;9558;50.178;8.370;2023-01-01T05:20:58;5.35;;;2.85;;
18857;SDS011;9558;50.178;8.370;2023-01-01T05:23:26;3.28;;;2.20;;
18857;SDS011;9558;50.178;8.370;2023-01-01T05:25:54;3.28;;;2.40;;
18857;SDS011;9558;50.178;8.370;2023-01-01T05:28:21;2.65;;;2.10;;
18857;SDS011;9558;50.178;8.370;2023-01-01T05:30:48;7.13;;;2.90;;
18857;SDS011;9558;50.178;8.370;2023-01-01T05:33:15;5.30;;;1.98;;
18857;SDS011;9558;50.178;8.370;2023-01-01T05:35:41;3.92;;;2.08;;
18857;SDS011;9558;50.178;8.370;2023-01-01T05:38:08;3.17;;;1.70;;
18857;SDS011;9558;50.178;8.370;2023-01-01T05:40:36;3.15;;;1.90;;
18857;SDS011;9558;50.178;8.370;2023-01-01T05:43:05;3.95;;;2.67;;
18857;SDS011;9558;50.178;8.370;2023-01-01T05:45:34;4.15;;;2.55;;
18857;SDS011;9558;50.178;8.370;2023-01-01T05:48:00;4.43;;;2.42;;
18857;SDS011;9558;50.178;8.370;2023-01-01T05:50:28;3.35;;;2.30;;
18857;SDS011;9558;50.178;8.370;2023-01-01T05:52:55;3.53;;;2.33;;
18857;SDS011;9558;50.178;8.370;2023-01-01T05:55:21;3.15;;;2.38;;
18857;SDS011;9558;50.178;8.370;2023-01-01T05:57:48;5.25;;;2.40;;
18857;SDS011;9558;50.178;8.370;2023-01-01T06:00:16;7.30;;;2.25;;
18857;SDS011;9558;50.178;8.370;2023-01-01T06:02:43;3.67;;;2.13;;
18857;SDS011;9558;50.178;8.370;2023-01-01T06:05:09;2.90;;;1.83;;
18857;SDS011;9558;50.178;8.370;2023-01-01T06:07:36;4.47;;;2.25;;
18857;SDS011;9558;50.178;8.370;2023-01-01T06:10:02;8.02;;;1.60;;
18857;SDS011;9558;50.178;8.370;2023-01-01T06:12:30;5.40;;;2.58;;
18857;SDS011;9558;50.178;8.370;2023-01-01T06:14:56;3.45;;;1.85;;
18857;SDS011;9558;50.178;8.370;2023-01-01T06:17:24;4.70;;;1.92;;
18857;SDS011;9558;50.178;8.370;2023-01-01T06:19:51;3.42;;;2.17;;
18857;SDS011;9558;50.178;8.370;2023-01-01T06:22:17;2.80;;;1.40;;
18857;SDS011;9558;50.178;8.370;2023-01-01T06:24:44;3.30;;;1.67;;
18857;SDS011;9558;50.178;8.370;2023-01-01T06:27:10;3.00;;;2.20;;
18857;SDS011;9558;50.178;8.370;2023-01-01T06:29:37;1.83;;;1.40;;
18857;SDS011;9558;50.178;8.370;2023-01-01T06:32:03;2.75;;;1.67;;
18857;SDS011;9558;50.178;8.370;2023-01-01T06:34:32;3.05;;;1.70;;
18857;SDS011;9558;50.178;8.370;2023-01-01T06:36:59;5.63;;;1.88;;
18857;SDS011;9558;50.178;8.370;2023-01-01T06:39:25;2.30;;;0.98;;
18857;SDS011;9558;50.178;8.370;2023-01-01T06:41:52;4.07;;;1.75;;
18857;SDS011;9558;50.178;8.370;2023-01-01T06:44:19;3.40;;;1.80;;
18857;SDS011;9558;50.178;8.370;2023-01-01T06:46:45;2.58;;;2.22;;
18857;SDS011;9558;50.178;8.370;2023-01-01T06:49:12;2.42;;;1.58;;
18857;SDS011;9558;50.178;8.370;2023-01-01T06:51:40;1.77;;;1.50;;
18857;SDS011;9558;50.178;8.370;2023-01-01T06:54:09;1.23;;;1.13;;
18857;SDS011;9558;50.178;8.370;2023-01-01T06:56:36;2.30;;;1.55;;
18857;SDS011;9558;50.178;8.370;2023-01-01T06:59:02;4.95;;;2.13;;
18857;SDS011;9558;50.178;8.370;2023-01-01T07:01:30;2.05;;;1.42;;
18857;SDS011;9558;50.178;8.370;2023-01-01T07:04:00;1.45;;;1.35;;
18857;SDS011;9558;50.178;8.370;2023-01-01T07:06:29;2.05;;;1.38;;
18857;SDS011;9558;50.178;8.370;2023-01-01T07:08:57;6.07;;;2.25;;
18857;SDS011;9558;50.178;8.370;2023-01-01T07:11:24;3.75;;;1.52;;
18857;SDS011;9558;50.178;8.370;2023-01-01T07:16:18;5.53;;;2.05;;
18857;SDS011;9558;50.178;8.370;2023-01-01T07:18:46;2.97;;;1.48;;
18857;SDS011;9558;50.178;8.370;2023-01-01T07:21:23;4.68;;;1.23;;
18857;SDS011;9558;50.178;8.370;2023-01-01T07:23:53;2.88;;;1.60;;
18857;SDS011;9558;50.178;8.370;2023-01-01T07:26:22;1.67;;;1.20;;
18857;SDS011;9558;50.178;8.370;2023-01-01T07:28:49;3.88;;;2.33;;
18857;SDS011;9558;50.178;8.370;2023-01-01T07:31:16;3.33;;;1.67;;
18857;SDS011;9558;50.178;8.370;2023-01-01T07:33:43;3.33;;;1.83;;
18857;SDS011;9558;50.178;8.370;2023-01-01T07:36:09;2.60;;;1.60;;
18857;SDS011;9558;50.178;8.370;2023-01-01T07:38:36;4.13;;;1.58;;
18857;SDS011;9558;50.178;8.370;2023-01-01T07:41:03;2.17;;;1.50;;
18857;SDS011;9558;50.178;8.370;2023-01-01T07:43:31;1.77;;;1.30;;
18857;SDS011;9558;50.178;8.370;2023-01-01T07:45:58;2.45;;;1.92;;
18857;SDS011;9558;50.178;8.370;2023-01-01T07:48:24;4.50;;;2.42;;
18857;SDS011;9558;50.178;8.370;2023-01-01T07:50:51;2.30;;;1.30;;
18857;SDS011;9558;50.178;8.370;2023-01-01T07:53:18;5.82;;;2.00;;
18857;SDS011;9558;50.178;8.370;2023-01-01T07:55:44;2.42;;;1.60;;
18857;SDS011;9558;50.178;8.370;2023-01-01T07:58:11;3.65;;;1.92;;
18857;SDS011;9558;50.178;8.370;2023-01-01T08:00:39;2.05;;;1.25;;
18857;SDS011;9558;50.178;8.370;2023-01-01T08:03:06;6.55;;;2.10;;
18857;SDS011;9558;50.178;8.370;2023-01-01T08:05:36;3.15;;;1.92;;
18857;SDS011;9558;50.178;8.370;2023-01-01T08:08:03;2.80;;;2.20;;
18857;SDS011;9558;50.178;8.370;2023-01-01T08:10:30;4.80;;;2.67;;
18857;SDS011;9558;50.178;8.370;2023-01-01T08:13:00;6.78;;;2.25;;
18857;SDS011;9558;50.178;8.370;2023-01-01T08:15:27;5.90;;;1.65;;
18857;SDS011;9558;50.178;8.370;2023-01-01T08:17:58;4.38;;;1.85;;
18857;SDS011;9558;50.178;8.370;2023-01-01T08:20:26;4.85;;;2.10;;
18857;SDS011;9558;50.178;8.370;2023-01-01T08:22:54;4.22;;;2.15;;
18857;SDS011;9558;50.178;8.370;2023-01-01T08:25:20;5.35;;;2.78;;
18857;SDS011;9558;50.178;8.370;2023-01-01T08:27:47;4.32;;;2.33;;
18857;SDS011;9558;50.178;8.370;2023-01-01T08:30:14;6.00;;;2.90;;
18857;SDS011;9558;50.178;8.370;2023-01-01T08:35:09;4.07;;;2.38;;
18857;SDS011;9558;50.178;8.370;2023-01-01T08:37:36;3.78;;;2.08;;
18857;SDS011;9558;50.178;8.370;2023-01-01T08:40:02;2.63;;;1.70;;
18857;SDS011;9558;50.178;8.370;2023-01-01T08:42:30;4.10;;;2.45;;
18857;SDS011;9558;50.178;8.370;2023-01-01T08:44:56;5.35;;;2.80;;
18857;SDS011;9558;50.178;8.370;2023-01-01T08:47:24;4.22;;;2.05;;
18857;SDS011;9558;50.178;8.370;2023-01-01T08:49:51;7.38;;;2.72;;
18857;SDS011;9558;50.178;8.370;2023-01-01T08:52:20;3.80;;;2.47;;
18857;SDS011;9558;50.178;8.370;2023-01-01T08:54:47;11.43;;;2.72;;
18857;SDS011;9558;50.178;8.370;2023-01-01T08:57:13;7.32;;;2.42;;
18857;SDS011;9558;50.178;8.370;2023-01-01T08:59:40;5.25;;;2.10;;
18857;SDS011;9558;50.178;8.370;2023-01-01T09:02:07;5.97;;;1.92;;
18857;SDS011;9558;50.178;8.370;2023-01-01T09:04:34;12.02;;;2.28;;
18857;SDS011;9558;50.178;8.370;2023-01-01T09:07:01;3.40;;;2.03;;
18857;SDS011;9558;50.178;8.370;2023-01-01T09:09:29;4.47;;;2.13;;
18857;SDS011;9558;50.178;8.370;2023-01-01T09:11:56;3.88;;;1.65;;
18857;SDS011;9558;50.178;8.370;2023-01-01T09:14:28;3.22;;;1.80;;
18857;SDS011;9558;50.178;8.370;2023-01-01T09:16:54;4.85;;;2.05;;
18857;SDS011;9558;50.178;8.370;2023-01-01T09:19:21;3.13;;;2.00;;
18857;SDS011;9558;50.178;8.370;2023-01-01T09:21:47;5.00;;;2.20;;
18857;SDS011;9558;50.178;8.370;2023-01-01T09:24:14;4.70;;;1.60;;
18857;SDS011;9558;50.178;8.370;2023-01-01T09:26:43;6.03;;;2.05;;
18857;SDS011;9558;50.178;8.370;2023-01-01T09:29:10;5.97;;;1.58;;
18857;SDS011;9558;50.178;8.370;2023-01-01T09:31:37;4.28;;;1.67;;
18857;SDS011;9558;50.178;8.370;2023-01-01T09:34:03;2.88;;;1.05;;
18857;SDS011;9558;50.178;8.370;2023-01-01T09:36:30;2.47;;;1.05;;
18857;SDS011;9558;50.178;8.370;2023-01-01T09:38:58;12.38;;;1.50;;
18857;SDS011;9558;50.178;8.370;2023-01-01T09:41:29;2.85;;;1.73;;
18857;SDS011;9558;50.178;8.370;2023-01-01T09:44:08;2.17;;;1.50;;
18857;SDS011;9558;50.178;8.370;2023-01-01T09:46:47;2.20;;;1.50;;
18857;SDS011;9558;50.178;8.370;2023-01-01T09:49:14;2.30;;;0.80;;
18857;SDS011;9558;50.178;8.370;2023-01-01T09:51:47;1.75;;;0.80;;
18857;SDS011;9558;50.178;8.370;2023-01-01T09:54:20;2.13;;;1.17;;
18857;SDS011;9558;50.178;8.370;2023-01-01T09:56:54;5.93;;;1.30;;
18857;SDS011;9558;50.178;8.370;2023-01-01T09:59:23;1.13;;;1.00;;
18857;SDS011;9558;50.178;8.370;2023-01-01T10:01:52;0.75;;;0.68;;
18857;SDS011;9558;50.178;8.370;2023-01-01T10:07:01;0.80;;;0.80;;
18857;SDS011;9558;50.178;8.370;2023-01-01T10:09:39;0.93;;;0.75;;
18857;SDS011;9558;50.178;8.370;2023-01-01T10:12:14;1.70;;;1.20;;
18857;SDS011;9558;50.178;8.370;2023-01-01T10:14:47;1.88;;;0.70;;
18857;SDS011;9558;50.178;8.370;2023-01-01T10:17:17;3.50;;;1.25;;
18857;SDS011;9558;50.178;8.370;2023-01-01T10:19:47;2.10;;;1.45;;
18857;SDS011;9558;50.178;8.370;2023-01-01T10:22:17;1.38;;;0.98;;
18857;SDS011;9558;50.178;8.370;2023-01-01T10:24:50;2.38;;;1.50;;
18857;SDS011;9558;50.178;8.370;2023-01-01T10:27:25;1.20;;;0.95;;
18857;SDS011;9558;50.178;8.370;2023-01-01T10:29:57;2.55;;;1.08;;
18857;SDS011;9558;50.178;8.370;2023-01-01T10:32:28;1.10;;;0.80;;
18857;SDS011;9558;50.178;8.370;2023-01-01T10:34:56;3.97;;;1.50;;
18857;SDS011;9558;50.178;8.370;2023-01-01T10:37:24;1.17;;;0.70;;
18857;SDS011;9558;50.178;8.370;2023-01-01T10:39:53;4.13;;;1.05;;
18857;SDS011;9558;50.178;8.370;2023-01-01T10:42:20;3.80;;;1.20;;
18857;SDS011;9558;50.178;8.370;2023-01-01T10:44:46;1.85;;;1.17;;
18857;SDS011;9558;50.178;8.370;2023-01-01T10:47:21;1.30;;;1.10;;
18857;SDS011;9558;50.178;8.370;2023-01-01T10:49:53;2.47;;;1.13;;
18857;SDS011;9558;50.178;8.370;2023-01-01T10:52:23;1.90;;;0.80;;
18857;SDS011;9558;50.178;8.370;2023-01-01T10:54:52;3.08;;;1.10;;
18857;SDS011;9558;50.178;8.370;2023-01-01T10:57:21;1.48;;;1.15;;
18857;SDS011;9558;50.178;8.370;2023-01-01T11:00:08;3.67;;;0.90;;
18857;SDS011;9558;50.178;8.370;2023-01-01T11:02:38;2.88;;;0.98;;
18857;SDS011;9558;50.178;8.370;2023-01-01T11:05:11;1.05;;;0.93;;
18857;SDS011;9558;50.178;8.370;2023-01-01T11:07:40;1.48;;;0.85;;
18857;SDS011;9558;50.178;8.370;2023-01-01T11:10:16;1.63;;;1.00;;
18857;SDS011;9558;50.178;8.370;2023-01-01T11:12:44;0.98;;;0.77;;
18857;SDS011;9558;50.178;8.370;2023-01-01T11:15:19;2.72;;;1.02;;
18857;SDS011;9558;50.178;8.370;2023-01-01T11:17:49;3.45;;;1.55;;
18857;SDS011;9558;50.178;8.370;2023-01-01T11:20:17;5.45;;;1.60;;
18857;SDS011;9558;50.178;8.370;2023-01-01T11:22:46;2.08;;;1.00;;
18857;SDS011;9558;50.178;8.370;2023-01-01T11:25:20;1.38;;;1.20;;
18857;SDS011;9558;50.178;8.370;2023-01-01T11:27:49;1.73;;;1.08;;
18857;SDS011;9558;50.178;8.370;2023-01-01T11:30:20;0.88;;;0.85;;
18857;SDS011;9558;50.178;8.370;2023-01-01T11:32:54;1.85;;;0.77;;
18857;SDS011;9558;50.178;8.370;2023-01-01T11:35:24;5.30;;;1.30;;
18857;SDS011;9558;50.178;8.370;2023-01-01T11:37:53;2.42;;;0.60;;
18857;SDS011;9558;50.178;8.370;2023-01-01T11:40:22;1.60;;;0.88;;
18857;SDS011;9558;50.178;8.370;2023-01-01T11:42:51;1.65;;;0.80;;
18857;SDS011;9558;50.178;8.370;2023-01-01T11:45:22;0.98;;;0.70;;
18857;SDS011;9558;50.178;8.370;2023-01-01T11:47:51;2.53;;;1.20;;
18857;SDS011;9558;50.178;8.370;2023-01-01T11:50:24;3.75;;;0.90;;
18857;SDS011;9558;50.178;8.370;2023-01-01T11:52:54;3.40;;;0.93;;
18857;SDS011;9558;50.178;8.370;2023-01-01T11:55:26;3.90;;;1.33;;
18857;SDS011;9558;50.178;8.370;2023-01-01T11:58:03;1.55;;;1.10;;
18857;SDS011;9558;50.178;8.370;2023-01-01T12:00:43;2.05;;;0.95;;
18857;SDS011;9558;50.178;8.370;2023-01-01T12:03:18;1.98;;;0.70;;
18857;SDS011;9558;50.178;8.370;2023-01-01T12:05:51;3.35;;;1.08;;
18857;SDS011;9558;50.178;8.370;2023-01-01T12:08:30;0.68;;;0.68;;
18857;SDS011;9558;50.178;8.370;2023-01-01T12:11:04;4.78;;;1.27;;
18857;SDS011;9558;50.178;8.370;2023-01-01T12:13:43;2.38;;;0.90;;
18857;SDS011;9558;50.178;8.370;2023-01-01T12:16:15;1.45;;;0.70;;
18857;SDS011;9558;50.178;8.370;2023-01-01T12:18:51;5.32;;;1.13;;
18857;SDS011;9558;50.178;8.370;2023-01-01T12:21:27;2.80;;;1.10;;
18857;SDS011;9558;50.178;8.370;2023-01-01T12:23:56;3.35;;;0.88;;
18857;SDS011;9558;50.178;8.370;2023-01-01T12:26:24;2.80;;;0.80;;
18857;SDS011;9558;50.178;8.370;2023-01-01T12:29:04;2.72;;;0.77;;
18857;SDS011;9558;50.178;8.370;2023-01-01T12:31:46;3.83;;;1.27;;
18857;SDS011;9558;50.178;8.370;2023-01-01T12:34:26;6.70;;;1.05;;
18857;SDS011;9558;50.178;8.370;2023-01-01T12:36:58;3.88;;;1.27;;
18857;SDS011;9558;50.178;8.370;2023-01-01T12:42:30;2.55;;;0.98;;
18857;SDS011;9558;50.178;8.370;2023-01-01T12:45:12;1.05;;;0.95;;
18857;SDS011;9558;50.178;8.370;2023-01-01T12:47:58;2.83;;;0.60;;
18857;SDS011;9558;50.178;8.370;2023-01-01T12:50:37;4.05;;;1.10;;
18857;SDS011;9558;50.178;8.370;2023-01-01T12:53:15;0.85;;;0.70;;
18857;SDS011;9558;50.178;8.370;2023-01-01T12:55:58;3.70;;;1.55;;
18857;SDS011;9558;50.178;8.370;2023-01-01T12:58:35;2.55;;;1.10;;
18857;SDS011;9558;50.178;8.370;2023-01-01T13:01:06;3.50;;;1.00;;
18857;SDS011;9558;50.178;8.370;2023-01-01T13:03:41;5.10;;;1.27;;
18857;SDS011;9558;50.178;8.370;2023-01-01T13:06:15;1.33;;;1.15;;
18857;SDS011;9558;50.178;8.370;2023-01-01T13:08:46;3.42;;;1.85;;
18857;SDS011;9558;50.178;8.370;2023-01-01T13:11:17;3.38;;;1.00;;
18857;SDS011;9558;50.178;8.370;2023-01-01T13:13:44;1.13;;;0.88;;
18857;SDS011;9558;50.178;8.370;2023-01-01T13:16:17;3.00;;;0.93;;
18857;SDS011;9558;50.178;8.370;2023-01-01T13:18:58;1.15;;;0.82;;
18857;SDS011;9558;50.178;8.370;2023-01-01T13:21:27;4.07;;;1.70;;
18857;SDS011;9558;50.178;8.370;2023-01-01T13:23:56;1.80;;;0.98;;
18857;SDS011;9558;50.178;8.370;2023-01-01T13:26:36;2.30;;;0.93;;
18857;SDS011;9558;50.178;8.370;2023-01-01T13:32:03;3.65;;;1.40;;
18857;SDS011;9558;50.178;8.370;2023-01-01T13:34:34;1.30;;;1.00;;
18857;SDS011;9558;50.178;8.370;2023-01-01T13:43:17;2.75;;;0.90;;
18857;SDS011;9558;50.178;8.370;2023-01-01T13:45:53;1.30;;;0.90;;
18857;SDS011;9558;50.178;8.370;2023-01-01T13:51:09;1.65;;;0.98;;
18857;SDS011;9558;50.178;8.370;2023-01-01T13:53:55;2.60;;;1.35;;
18857;SDS011;9558;50.178;8.370;2023-01-01T13:56:34;2.53;;;0.93;;
18857;SDS011;9558;50.178;8.370;2023-01-01T13:59:21;3.28;;;1.50;;
18857;SDS011;9558;50.178;8.370;2023-01-01T14:01:58;0.85;;;0.80;;
18857;SDS011;9558;50.178;8.370;2023-01-01T14:04:34;6.38;;;1.48;;
18857;SDS011;9558;50.178;8.370;2023-01-01T14:07:06;7.45;;;1.15;;
18857;SDS011;9558;50.178;8.370;2023-01-01T14:09:42;1.88;;;0.68;;
18857;SDS011;9558;50.178;8.370;2023-01-01T14:12:12;2.03;;;0.90;;
18857;SDS011;9558;50.178;8.370;2023-01-01T14:14:43;1.75;;;0.75;;
18857;SDS011;9558;50.178;8.370;2023-01-01T14:17:10;4.93;;;1.10;;
18857;SDS011;9558;50.178;8.370;2023-01-01T14:19:39;2.17;;;0.90;;
18857;SDS011;9558;50.178;8.370;2023-01-01T14:22:06;0.85;;;0.52;;
18857;SDS011;9558;50.178;8.370;2023-01-01T14:24:35;3.63;;;0.77;;
18857;SDS011;9558;50.178;8.370;2023-01-01T14:27:05;1.98;;;0.60;;
18857;SDS011;9558;50.178;8.370;2023-01-01T14:29:32;4.28;;;0.85;;
18857;SDS011;9558;50.178;8.370;2023-01-01T14:32:10;0.82;;;0.77;;
18857;SDS011;9558;50.178;8.370;2023-01-01T14:34:38;6.47;;;0.82;;
18857;SDS011;9558;50.178;8.370;2023-01-01T14:37:17;4.05;;;1.25;;
18857;SDS011;9558;50.178;8.370;2023-01-01T14:39:49;1.00;;;0.50;;
18857;SDS011;9558;50.178;8.370;2023-01-01T14:42:30;0.65;;;0.65;;
18857;SDS011;9558;50.178;8.370;2023-01-01T14:44:57;8.10;;;1.25;;
18857;SDS011;9558;50.178;8.370;2023-01-01T14:47:26;3.25;;;1.25;;
18857;SDS011;9558;50.178;8.370;2023-01-01T14:49:56;6.20;;;1.05;;
18857;SDS011;9558;50.178;8.370;2023-01-01T14:52:27;1.58;;;1.27;;
18857;SDS011;9558;50.178;8.370;2023-01-01T14:54:55;0.90;;;0.75;;
18857;SDS011;9558;50.178;8.370;2023-01-01T14:57:24;0.93;;;0.70;;
18857;SDS011;9558;50.178;8.370;2023-01-01T14:59:54;1.70;;;0.80;;
18857;SDS011;9558;50.178;8.370;2023-01-01T15:02:21;3.15;;;0.95;;
18857;SDS011;9558;50.178;8.370;2023-01-01T15:04:50;0.73;;;0.73;;
18857;SDS011;9558;50.178;8.370;2023-01-01T15:07:19;4.45;;;0.90;;
18857;SDS011;9558;50.178;8.370;2023-01-01T15:09:47;1.52;;;1.02;;
18857;SDS011;9558;50.178;8.370;2023-01-01T15:12:14;2.17;;;0.90;;
18857;SDS011;9558;50.178;8.370;2023-01-01T15:14:42;2.53;;;0.93;;
18857;SDS011;9558;50.178;8.370;2023-01-01T15:17:10;1.05;;;0.80;;
18857;SDS011;9558;50.178;8.370;2023-01-01T15:19:39;8.70;;;1.30;;
18857;SDS011;9558;50.178;8.370;2023-01-01T15:22:09;3.03;;;1.13;;
18857;SDS011;9558;50.178;8.370;2023-01-01T15:24:37;7.05;;;1.27;;
18857;SDS011;9558;50.178;8.370;2023-01-01T15:29:32;3.75;;;1.00;;
18857;SDS011;9558;50.178;8.370;2023-01-01T15:32:02;2.60;;;1.38;;
18857;SDS011;9558;50.178;8.370;2023-01-01T15:34:31;1.45;;;1.13;;
18857;SDS011;9558;50.178;8.370;2023-01-01T15:37:04;3.95;;;1.58;;
18857;SDS011;9558;50.178;8.370;2023-01-01T15:39:44;2.28;;;0.65;;
18857;SDS011;9558;50.178;8.370;2023-01-01T15:42:26;0.88;;;0.80;;
18857;SDS011;9558;50.178;8.370;2023-01-01T15:45:07;3.53;;;1.00;;
18857;SDS011;9558;50.178;8.370;2023-01-01T15:47:49;1.10;;;1.00;;
18857;SDS011;9558;50.178;8.370;2023-01-01T15:50:21;4.32;;;1.48;;